Time;durP1;ratioP1;P1;durP2;ratioP2;P2;SDS_P1;SDS_P2;PMS_P1;PMS_P2;Temp;Humidity;BMP_temperature;BMP_pressure;BME280_temperature;BME280_humidity;BME280_pressure;Samples;Min_cycle;Max_cycle;Signal;HPM_P1;HPM_P2
2024/04/08 00:00:24;;;;;;;;;;;;;;;18.60;66.90;96712.00;109067;1277;22495;-91
2024/04/08 00:03:10;;;;;;;;;;;;;;;18.59;66.51;96707.45;108953;1270;124055;-88
2024/04/08 00:05:37;;;;;;;;;;;;;;;18.64;66.47;96708.40;109108;1276;22531;-90
2024/04/08 00:08:04;;;;;;;;;;;;;;;18.68;66.42;96701.67;108966;1273;124062;-90
2024/04/08 00:10:31;;;;;;;;;;;;;;;18.67;66.47;96703.34;109058;1273;25250;-91
2024/04/08 00:12:57;;;;;;;;;;;;;;;18.66;66.19;96703.36;109062;1277;22700;-91
2024/04/08 00:15:23;;;;;;;;;;;;;;;18.67;65.88;96702.09;108882;1277;123896;-90
2024/04/08 00:17:50;;;;;;;;;;;;;;;18.70;65.98;96702.29;108949;1278;25240;-90
2024/04/08 00:20:19;;;;;;;;;;;;;;;18.68;66.16;96708.63;108943;1277;124098;-92
2024/04/08 00:22:46;;;;;;;;;;;;;;;18.69;65.58;96708.71;108979;1275;22628;-90
2024/04/08 00:25:13;;;;;;;;;;;;;;;18.74;65.62;96708.52;108838;1277;124234;-90
2024/04/08 00:27:39;;;;;;;;;;;;;;;18.73;66.02;96712.98;109095;1277;22429;-91
2024/04/08 00:30:06;;;;;;;;;;;;;;;18.67;66.07;96713.06;108993;1277;22505;-91
2024/04/08 00:32:32;;;;;;;;;;;;;;;18.63;65.97;96709.11;108982;1271;124082;-91
2024/04/08 00:34:59;;;;;;;;;;;;;;;18.66;65.77;96708.27;108915;1269;22527;-91
2024/04/08 00:37:25;;;;;;;;;;;;;;;18.70;65.75;96705.41;108995;1276;124590;-90
2024/04/08 00:39:52;;;;;;;;;;;;;;;18.72;65.62;96706.54;109160;1276;22514;-90
2024/04/08 00:42:18;;;;;;;;;;;;;;;18.74;65.47;96701.95;109089;1260;22501;-91
2024/04/08 00:44:44;;;;;;;;;;;;;;;18.76;65.24;96697.80;109035;1276;124185;-90
2024/04/08 00:47:11;;;;;;;;;;;;;;;18.76;65.05;96701.36;109125;1276;23188;-91
2024/04/08 00:49:41;;;;;;;;;;;;;;;18.76;64.86;96697.20;109016;1275;124299;-91
2024/04/08 00:52:11;;;;;;;;;;;;;;;18.78;65.31;96701.83;109114;1276;23780;-91
2024/04/08 00:54:41;;;;;;;;;;;;;;;18.71;65.38;96702.48;109105;1270;22616;-90
2024/04/08 00:57:12;;;;;;;;;;;;;;;18.68;65.09;96700.41;108956;1273;124434;-91
2024/04/08 00:59:38;;;;;;;;;;;;;;;18.70;65.17;96697.88;109070;1276;22558;-90
2024/04/08 01:02:05;;;;;;;;;;;;;;;18.69;65.49;96701.17;109141;1276;124194;-91
2024/04/08 01:04:32;;;;;;;;;;;;;;;18.61;65.28;96700.75;109015;1272;24152;-90
2024/04/08 01:06:59;;;;;;;;;;;;;;;18.58;65.67;96701.05;108956;1274;23770;-91
2024/04/08 01:09:27;;;;;;;;;;;;;;;18.52;66.03;96702.40;109031;1276;124129;-91
2024/04/08 01:11:54;;;;;;;;;;;;;;;18.45;66.25;96700.92;109137;1276;23713;-91
2024/04/08 01:14:20;;;;;;;;;;;;;;;18.36;66.42;96700.91;108899;1278;124208;-91
2024/04/08 01:16:47;;;;;;;;;;;;;;;18.25;66.80;96700.02;109148;1276;22501;-91
2024/04/08 01:19:18;;;;;;;;;;;;;;;18.18;66.98;96693.98;108836;1276;124201;-91
2024/04/08 01:21:45;;;;;;;;;;;;;;;18.13;67.08;96691.30;109073;1278;22523;-91
2024/04/08 01:24:12;;;;;;;;;;;;;;;18.16;67.14;96692.96;108948;1273;22506;-89
2024/04/08 01:26:38;;;;;;;;;;;;;;;18.19;66.88;96694.02;109019;1276;124254;-91
2024/04/08 01:29:05;;;;;;;;;;;;;;;18.28;67.10;96699.20;109057;1278;22557;-91
2024/04/08 01:31:31;;;;;;;;;;;;;;;18.27;66.90;96691.92;108941;1277;124145;-91
2024/04/08 01:33:58;;;;;;;;;;;;;;;18.29;66.97;96688.54;109016;1277;22529;-91
2024/04/08 01:36:25;;;;;;;;;;;;;;;18.33;66.56;96689.05;109164;1270;25196;-91
2024/04/08 01:38:52;;;;;;;;;;;;;;;18.39;66.77;96679.63;108960;1270;124342;-91
2024/04/08 01:41:18;;;;;;;;;;;;;;;18.37;66.76;96673.79;109015;1270;23148;-90
2024/04/08 01:43:45;;;;;;;;;;;;;;;18.38;66.81;96676.91;108951;1277;124263;-90
2024/04/08 01:46:12;;;;;;;;;;;;;;;18.36;66.61;96674.39;108915;1272;22527;-91
2024/04/08 01:48:39;;;;;;;;;;;;;;;18.38;66.67;96671.25;109082;1274;22538;-92
2024/04/08 01:51:05;;;;;;;;;;;;;;;18.39;66.50;96667.41;108890;1273;124031;-90
2024/04/08 01:53:31;;;;;;;;;;;;;;;18.38;66.65;96665.79;109048;1273;22588;-90
2024/04/08 01:55:58;;;;;;;;;;;;;;;18.39;66.58;96663.81;108955;1277;124031;-92
2024/04/08 01:58:24;;;;;;;;;;;;;;;18.41;66.35;96661.30;109002;1275;22541;-91
2024/04/08 02:00:51;;;;;;;;;;;;;;;18.44;66.40;96659.20;108996;1270;22863;-91
2024/04/08 02:03:18;;;;;;;;;;;;;;;18.42;66.62;96661.17;108916;1277;124351;-90
2024/04/08 02:05:45;;;;;;;;;;;;;;;18.40;66.28;96658.42;109040;1277;25257;-91
2024/04/08 02:08:12;;;;;;;;;;;;;;;18.40;66.38;96656.02;108875;1275;124218;-91
2024/04/08 02:10:40;;;;;;;;;;;;;;;18.40;66.58;96655.73;108989;1271;22593;-91
2024/04/08 02:13:07;;;;;;;;;;;;;;;18.38;66.59;96651.74;108889;1272;124148;-90
2024/04/08 02:15:33;;;;;;;;;;;;;;;18.36;66.70;96647.77;109093;1278;22546;-90
2024/04/08 02:18:00;;;;;;;;;;;;;;;18.34;66.55;96650.20;109034;1278;22528;-90
2024/04/08 02:20:26;;;;;;;;;;;;;;;18.33;66.91;96649.07;108985;1270;124180;-89
2024/04/08 02:22:53;;;;;;;;;;;;;;;18.32;66.82;96646.61;108991;1278;22552;-91
2024/04/08 02:25:20;;;;;;;;;;;;;;;18.28;66.96;96646.59;109012;1276;124300;-91
2024/04/08 02:27:46;;;;;;;;;;;;;;;18.26;67.02;96644.40;108877;1277;22535;-90
2024/04/08 02:30:13;;;;;;;;;;;;;;;18.24;67.28;96641.56;108861;1277;22491;-90
2024/04/08 02:32:39;;;;;;;;;;;;;;;18.23;66.98;96642.57;108759;1274;124350;-91
2024/04/08 02:35:06;;;;;;;;;;;;;;;18.29;67.19;96640.79;109073;1266;22676;-91
2024/04/08 02:37:32;;;;;;;;;;;;;;;18.32;66.94;96640.80;109034;1264;124422;-91
2024/04/08 02:39:59;;;;;;;;;;;;;;;18.37;67.09;96641.85;109048;1270;22498;-91
2024/04/08 02:42:25;;;;;;;;;;;;;;;18.36;67.35;96636.73;109090;1277;22534;-91
2024/04/08 02:44:52;;;;;;;;;;;;;;;18.32;67.46;96633.95;108859;1275;124157;-90
2024/04/08 02:47:19;;;;;;;;;;;;;;;18.28;67.35;96633.40;109244;1272;22522;-91
2024/04/08 02:49:46;;;;;;;;;;;;;;;18.32;67.36;96626.42;109007;1276;124392;-91
2024/04/08 02:52:12;;;;;;;;;;;;;;;18.34;67.55;96622.58;109112;1270;22542;-91
2024/04/08 02:54:39;;;;;;;;;;;;;;;18.31;67.74;96621.67;109074;1277;25376;-90
2024/04/08 02:57:05;;;;;;;;;;;;;;;18.29;67.53;96621.77;108896;1276;124003;-91
2024/04/08 02:59:31;;;;;;;;;;;;;;;18.31;67.65;96619.20;109020;1276;22519;-91
2024/04/08 03:01:58;;;;;;;;;;;;;;;18.29;67.67;96623.23;108956;1276;124242;-91
2024/04/08 03:04:24;;;;;;;;;;;;;;;18.26;67.59;96616.81;109172;1276;22512;-90
2024/04/08 03:06:51;;;;;;;;;;;;;;;18.28;67.58;96616.09;109083;1276;22536;-91
2024/04/08 03:09:17;;;;;;;;;;;;;;;18.24;67.72;96620.88;109102;1269;124032;-90
2024/04/08 03:11:44;;;;;;;;;;;;;;;18.17;68.16;96617.69;109129;1271;22526;-91
2024/04/08 03:14:11;;;;;;;;;;;;;;;18.15;67.94;96617.99;108876;1273;124139;-91
2024/04/08 03:16:37;;;;;;;;;;;;;;;18.14;67.98;96612.55;108922;1264;22547;-90
2024/04/08 03:19:03;;;;;;;;;;;;;;;18.13;68.12;96608.00;108921;1276;124195;-90
2024/04/08 03:21:30;;;;;;;;;;;;;;;18.13;68.14;96603.64;109150;1276;22587;-91
2024/04/08 03:23:57;;;;;;;;;;;;;;;18.13;68.05;96598.13;109126;1273;22520;-90
2024/04/08 03:26:23;;;;;;;;;;;;;;;18.15;68.01;96600.08;108959;1270;124244;-92
2024/04/08 03:28:51;;;;;;;;;;;;;;;18.17;67.97;96595.68;108998;1277;22485;-90
2024/04/08 03:31:18;;;;;;;;;;;;;;;18.17;67.98;96598.43;109061;1276;124240;-90
2024/04/08 03:33:44;;;;;;;;;;;;;;;18.17;68.06;96597.65;109128;1276;23747;-91
2024/04/08 03:36:11;;;;;;;;;;;;;;;18.18;67.90;96594.45;109037;1275;22527;-91
2024/04/08 03:38:38;;;;;;;;;;;;;;;18.22;67.69;96593.35;109033;1276;124093;-90
2024/04/08 03:41:05;;;;;;;;;;;;;;;18.25;67.77;96592.14;109105;1271;22494;-91
2024/04/08 03:43:31;;;;;;;;;;;;;;;18.26;67.72;96593.83;108828;1277;124300;-90
2024/04/08 03:45:58;;;;;;;;;;;;;;;18.26;67.72;96598.56;109003;1270;23942;-91
2024/04/08 03:48:24;;;;;;;;;;;;;;;18.26;67.47;96595.41;108992;1277;22578;-89
2024/04/08 03:50:51;;;;;;;;;;;;;;;18.27;67.52;96598.06;109031;1276;124196;-91
2024/04/08 03:53:17;;;;;;;;;;;;;;;18.30;67.41;96600.39;109097;1271;22523;-90
2024/04/08 03:55:45;;;;;;;;;;;;;;;18.34;67.33;96599.37;109040;1275;124338;-91
2024/04/08 03:58:11;;;;;;;;;;;;;;;18.34;67.19;96598.06;108987;1275;22501;-91
2024/04/08 04:00:38;;;;;;;;;;;;;;;18.34;67.44;96600.45;109065;1277;22546;-90
2024/04/08 04:03:04;;;;;;;;;;;;;;;18.32;67.34;96600.33;108975;1277;124425;-90
2024/04/08 04:05:31;;;;;;;;;;;;;;;18.29;67.40;96593.60;108879;1274;22490;-91
2024/04/08 04:07:58;;;;;;;;;;;;;;;18.26;67.41;96595.47;108896;1276;124030;-90
2024/04/08 04:10:24;;;;;;;;;;;;;;;18.26;67.27;96588.94;109225;1276;22539;-89
2024/04/08 04:12:51;;;;;;;;;;;;;;;18.26;67.32;96591.84;109031;1276;22517;-90
2024/04/08 04:15:17;;;;;;;;;;;;;;;18.25;67.40;96588.49;108911;1277;124161;-90
2024/04/08 04:17:44;;;;;;;;;;;;;;;18.21;67.58;96586.27;109045;1277;26851;-90
2024/04/08 04:20:11;;;;;;;;;;;;;;;18.16;67.69;96582.58;108851;1270;124254;-90
2024/04/08 04:22:38;;;;;;;;;;;;;;;18.15;67.67;96578.96;109122;1276;22536;-89
2024/04/08 04:25:04;;;;;;;;;;;;;;;18.16;67.49;96579.88;109069;1276;124210;-89
2024/04/08 04:27:31;;;;;;;;;;;;;;;18.17;67.53;96584.34;109112;1270;22494;-90
2024/04/08 04:29:57;;;;;;;;;;;;;;;18.21;67.48;96586.15;109124;1276;22613;-89
2024/04/08 04:32:24;;;;;;;;;;;;;;;18.22;67.38;96592.41;109073;1271;124390;-88
2024/04/08 04:34:53;;;;;;;;;;;;;;;18.23;67.33;96594.71;109117;1277;22526;-90
2024/04/08 04:37:20;;;;;;;;;;;;;;;18.22;67.43;96599.05;108886;1276;124320;-90
2024/04/08 04:39:46;;;;;;;;;;;;;;;18.21;67.48;96593.15;109036;1276;25273;-90
2024/04/08 04:42:13;;;;;;;;;;;;;;;18.19;67.35;96582.54;109122;1270;22552;-89
2024/04/08 04:44:39;;;;;;;;;;;;;;;18.18;67.31;96583.31;109001;1277;124249;-89
2024/04/08 04:47:06;;;;;;;;;;;;;;;18.19;67.61;96587.16;109061;1277;22558;-90
2024/04/08 04:49:33;;;;;;;;;;;;;;;18.17;67.41;96584.38;108850;1272;124324;-89
2024/04/08 04:51:59;;;;;;;;;;;;;;;18.16;67.59;96583.10;109118;1270;24219;-89
2024/04/08 04:54:25;;;;;;;;;;;;;;;18.15;67.43;96582.40;109107;1277;26580;-90
2024/04/08 04:56:52;;;;;;;;;;;;;;;18.15;67.60;96585.02;109101;1273;124218;-90
2024/04/08 04:59:18;;;;;;;;;;;;;;;18.14;67.69;96585.69;109116;1276;23338;-89
2024/04/08 05:01:45;;;;;;;;;;;;;;;18.10;67.75;96588.11;108880;1277;124303;-89
2024/04/08 05:04:11;;;;;;;;;;;;;;;18.08;68.12;96589.27;109052;1271;22500;-90
2024/04/08 05:06:38;;;;;;;;;;;;;;;18.05;68.12;96592.08;109068;1277;24029;-90
2024/04/08 05:09:05;;;;;;;;;;;;;;;18.06;68.10;96593.01;108912;1277;124649;-89
2024/04/08 05:11:32;;;;;;;;;;;;;;;18.07;68.31;96599.11;108899;1277;25298;-90
2024/04/08 05:13:58;;;;;;;;;;;;;;;18.05;68.52;96597.45;108905;1277;124094;-90
2024/04/08 05:16:25;;;;;;;;;;;;;;;18.03;68.45;96594.58;108983;1271;22497;-90
2024/04/08 05:18:51;;;;;;;;;;;;;;;18.03;68.61;96598.54;109016;1271;22530;-89
2024/04/08 05:21:17;;;;;;;;;;;;;;;18.04;68.48;96597.14;108931;1277;124026;-89
2024/04/08 05:23:44;;;;;;;;;;;;;;;18.08;68.55;96598.42;108922;1272;23755;-90
2024/04/08 05:26:11;;;;;;;;;;;;;;;18.09;68.35;96599.70;108948;1277;124282;-89
2024/04/08 05:28:38;;;;;;;;;;;;;;;18.11;68.36;96598.60;109109;1275;22503;-89
2024/04/08 05:31:04;;;;;;;;;;;;;;;18.12;68.18;96593.90;108794;1276;124676;-90
2024/04/08 05:33:30;;;;;;;;;;;;;;;18.14;68.36;96591.56;109049;1277;24222;-90
2024/04/08 05:35:57;;;;;;;;;;;;;;;18.14;68.59;96591.56;109068;1277;25188;-89
2024/04/08 05:38:24;;;;;;;;;;;;;;;18.14;68.22;96591.04;108935;1271;124079;-89
2024/04/08 05:40:51;;;;;;;;;;;;;;;18.13;68.49;96588.25;109042;1277;23806;-88
2024/04/08 05:43:18;;;;;;;;;;;;;;;18.14;68.44;96592.30;109001;1277;124215;-89
2024/04/08 05:45:46;;;;;;;;;;;;;;;18.14;68.39;96588.94;109204;1276;24083;-89
2024/04/08 05:48:14;;;;;;;;;;;;;;;18.17;68.04;96595.48;109073;1276;22515;-89
2024/04/08 05:50:41;;;;;;;;;;;;;;;18.22;68.02;96603.87;108799;1278;124272;-89
2024/04/08 05:53:08;;;;;;;;;;;;;;;18.25;68.13;96603.12;109009;1277;24729;-90
2024/04/08 05:55:35;;;;;;;;;;;;;;;18.25;68.39;96607.80;108915;1277;125260;-89
2024/04/08 05:58:02;;;;;;;;;;;;;;;18.25;68.33;96609.45;109006;1277;24688;-90
2024/04/08 06:00:29;;;;;;;;;;;;;;;18.27;68.61;96609.49;109062;1275;25525;-90
2024/04/08 06:02:56;;;;;;;;;;;;;;;18.30;68.36;96612.40;109024;1276;124046;-89
2024/04/08 06:05:23;;;;;;;;;;;;;;;18.35;67.94;96614.52;109114;1276;22530;-89
2024/04/08 06:07:49;;;;;;;;;;;;;;;18.42;67.67;96609.38;109154;1276;124026;-90
2024/04/08 06:10:16;;;;;;;;;;;;;;;18.47;67.54;96614.91;109137;1276;22484;-90
2024/04/08 06:12:43;;;;;;;;;;;;;;;18.53;67.58;96612.96;109053;1276;22505;-88
2024/04/08 06:15:09;;;;;;;;;;;;;;;18.57;68.06;96613.19;109049;1276;124038;-89
2024/04/08 06:17:36;;;;;;;;;;;;;;;18.60;67.74;96609.58;109128;1265;23722;-89
2024/04/08 06:20:03;;;;;;;;;;;;;;;18.65;67.98;96609.69;109049;1272;124279;-89
2024/04/08 06:22:29;;;;;;;;;;;;;;;18.68;68.00;96610.65;109102;1270;22496;-90
2024/04/08 06:24:55;;;;;;;;;;;;;;;18.70;68.26;96609.55;109199;1276;26593;-90
2024/04/08 06:27:22;;;;;;;;;;;;;;;18.74;67.81;96607.65;109173;1276;124389;-90
2024/04/08 06:29:48;;;;;;;;;;;;;;;18.77;67.00;96606.01;109164;1270;22508;-89
2024/04/08 06:32:15;;;;;;;;;;;;;;;18.84;67.39;96609.05;109056;1274;124167;-89
2024/04/08 06:34:41;;;;;;;;;;;;;;;18.87;67.45;96605.20;109105;1276;25417;-90
2024/04/08 06:37:08;;;;;;;;;;;;;;;18.90;67.44;96605.04;108980;1276;124190;-90
2024/04/08 06:39:34;;;;;;;;;;;;;;;18.92;67.31;96605.66;109167;1268;22499;-90
2024/04/08 06:42:00;;;;;;;;;;;;;;;18.95;66.86;96605.02;109210;1269;22522;-89
2024/04/08 06:44:27;;;;;;;;;;;;;;;18.99;66.90;96605.27;109082;1272;124141;-90
2024/04/08 06:46:54;;;;;;;;;;;;;;;19.02;66.68;96604.29;109015;1277;22500;-90
2024/04/08 06:49:21;;;;;;;;;;;;;;;19.06;66.84;96608.29;108981;1277;124252;-90
2024/04/08 06:51:48;;;;;;;;;;;;;;;19.07;67.06;96605.95;108937;1269;22543;-90
2024/04/08 06:54:14;;;;;;;;;;;;;;;19.10;66.21;96601.59;108938;1275;22552;-90
2024/04/08 06:56:41;;;;;;;;;;;;;;;19.14;65.62;96593.77;108807;1269;124272;-90
2024/04/08 06:59:07;;;;;;;;;;;;;;;19.18;65.59;96595.80;109069;1275;22506;-90
2024/04/08 07:01:34;;;;;;;;;;;;;;;19.22;65.87;96596.42;108888;1276;124207;-90
2024/04/08 07:04:01;;;;;;;;;;;;;;;19.25;65.33;96597.64;108915;1277;22492;-90
2024/04/08 07:06:27;;;;;;;;;;;;;;;19.29;64.80;96600.20;109019;1262;23954;-90
2024/04/08 07:08:54;;;;;;;;;;;;;;;19.34;65.24;96602.98;109094;1276;124520;-90
2024/04/08 07:11:20;;;;;;;;;;;;;;;19.38;65.63;96604.94;109211;1269;22523;-90
2024/04/08 07:13:47;;;;;;;;;;;;;;;19.40;65.47;96606.49;109000;1277;124437;-91
2024/04/08 07:16:13;;;;;;;;;;;;;;;19.44;65.39;96610.27;109006;1277;22572;-90
2024/04/08 07:18:41;;;;;;;;;;;;;;;19.49;64.84;96607.15;108878;1277;23147;-90
2024/04/08 07:21:09;;;;;;;;;;;;;;;19.56;64.61;96609.02;109010;1277;124067;-90
2024/04/08 07:23:35;;;;;;;;;;;;;;;19.61;64.43;96614.65;108968;1277;22541;-90
2024/04/08 07:26:02;;;;;;;;;;;;;;;19.65;64.46;96617.16;109039;1270;124047;-90
2024/04/08 07:28:28;;;;;;;;;;;;;;;19.72;64.47;96621.80;109110;1271;22525;-90
2024/04/08 07:30:54;;;;;;;;;;;;;;;19.77;64.13;96623.05;108958;1270;22542;-90
2024/04/08 07:33:21;;;;;;;;;;;;;;;19.84;63.47;96623.80;108898;1276;124469;-91
2024/04/08 07:35:48;;;;;;;;;;;;;;;19.90;63.79;96622.09;109000;1276;22646;-90
2024/04/08 07:38:15;;;;;;;;;;;;;;;19.94;64.28;96624.54;108954;1276;124030;-91
2024/04/08 07:40:42;;;;;;;;;;;;;;;20.00;63.80;96618.94;109164;1269;22536;-90
2024/04/08 07:43:08;;;;;;;;;;;;;;;20.07;63.29;96618.67;108975;1275;124338;-91
2024/04/08 07:45:35;;;;;;;;;;;;;;;20.14;62.82;96613.61;109090;1277;22526;-91
2024/04/08 07:48:02;;;;;;;;;;;;;;;20.19;62.72;96616.83;109014;1275;22512;-90
2024/04/08 07:50:28;;;;;;;;;;;;;;;20.25;62.82;96611.02;108939;1277;124031;-90
2024/04/08 07:52:55;;;;;;;;;;;;;;;20.30;62.63;96616.28;109036;1269;22505;-90
2024/04/08 07:55:21;;;;;;;;;;;;;;;20.35;62.29;96619.19;109004;1275;124206;-90
2024/04/08 07:57:48;;;;;;;;;;;;;;;20.42;61.69;96619.98;109109;1277;22514;-90
2024/04/08 08:00:16;;;;;;;;;;;;;;;20.48;61.56;96618.61;109052;1277;23845;-91
2024/04/08 08:02:44;;;;;;;;;;;;;;;20.51;62.05;96619.14;108993;1277;124092;-90
2024/04/08 08:05:10;;;;;;;;;;;;;;;20.57;62.09;96619.23;109097;1263;22982;-90
2024/04/08 08:07:38;;;;;;;;;;;;;;;20.63;62.00;96614.70;108940;1274;124441;-90
2024/04/08 08:10:04;;;;;;;;;;;;;;;20.70;61.64;96614.61;109008;1277;24190;-90
2024/04/08 08:12:31;;;;;;;;;;;;;;;20.78;61.01;96615.36;109002;1277;22497;-91
2024/04/08 08:14:58;;;;;;;;;;;;;;;20.87;60.52;96617.20;109012;1265;124028;-90
2024/04/08 08:17:26;;;;;;;;;;;;;;;20.92;60.01;96616.27;109108;1276;22493;-91
2024/04/08 08:19:54;;;;;;;;;;;;;;;20.98;59.91;96612.71;108934;1271;124141;-91
2024/04/08 08:22:22;;;;;;;;;;;;;;;21.06;60.50;96606.96;109125;1277;22611;-90
2024/04/08 08:24:49;;;;;;;;;;;;;;;21.15;60.20;96607.77;109057;1276;25224;-90
2024/04/08 08:27:15;;;;;;;;;;;;;;;21.24;60.59;96606.98;109018;1262;125690;-91
2024/04/08 08:29:42;;;;;;;;;;;;;;;21.33;60.33;96607.05;108881;1278;25197;-91
2024/04/08 08:32:09;;;;;;;;;;;;;;;21.43;60.20;96607.98;109041;1276;124982;-91
2024/04/08 08:34:36;;;;;;;;;;;;;;;21.51;59.05;96609.99;109156;1276;22967;-90
2024/04/08 08:37:02;;;;;;;;;;;;;;;21.56;58.65;96602.81;108911;1276;22507;-90
2024/04/08 08:39:30;;;;;;;;;;;;;;;21.63;58.40;96597.19;108901;1277;25208;-91
2024/04/08 08:41:57;;;;;;;;;;;;;;;21.72;58.36;96599.40;108993;1272;23117;-90
2024/04/08 08:44:23;;;;;;;;;;;;;;;21.79;57.61;96599.95;108943;1275;124056;-90
2024/04/08 08:46:49;;;;;;;;;;;;;;;21.84;57.06;96604.89;109049;1276;23050;-90
2024/04/08 08:49:16;;;;;;;;;;;;;;;21.87;57.16;96605.24;109120;1276;124676;-90
2024/04/08 08:51:43;;;;;;;;;;;;;;;21.89;56.02;96608.42;109166;1276;27341;-90
2024/04/08 08:54:09;;;;;;;;;;;;;;;21.87;55.51;96605.92;109134;1276;23141;-90
2024/04/08 08:56:36;;;;;;;;;;;;;;;21.86;55.45;96606.86;109096;1276;124082;-89
2024/04/08 08:59:03;;;;;;;;;;;;;;;21.86;55.23;96606.65;109077;1277;22704;-90
2024/04/08 09:01:33;;;;;;;;;;;;;;;21.87;55.36;96608.26;108940;1272;124355;-90
2024/04/08 09:04:00;;;;;;;;;;;;;;;21.89;54.88;96609.38;109098;1271;22506;-91
2024/04/08 09:06:26;;;;;;;;;;;;;;;21.93;53.45;96609.11;109106;1276;27397;-90
2024/04/08 09:08:53;;;;;;;;;;;;;;;21.96;54.83;96600.24;108983;1272;124048;-90
2024/04/08 09:11:19;;;;;;;;;;;;;;;22.03;55.01;96597.80;108927;1276;26414;-91
2024/04/08 09:13:49;;;;;;;;;;;;;;;22.13;54.68;96598.20;108922;1276;124251;-89
2024/04/08 09:16:21;;;;;;;;;;;;;;;22.23;53.94;96596.76;109106;1277;23190;-90
2024/04/08 09:18:48;;;;;;;;;;;;;;;22.28;52.95;96591.02;109101;1272;26391;-91
2024/04/08 09:21:14;;;;;;;;;;;;;;;22.31;53.94;96585.56;109093;1273;124279;-91
2024/04/08 09:23:42;;;;;;;;;;;;;;;22.36;53.57;96581.73;109187;1273;22497;-91
2024/04/08 09:26:08;;;;;;;;;;;;;;;22.45;53.23;96577.90;108950;1272;124121;-90
2024/04/08 09:28:35;;;;;;;;;;;;;;;22.53;53.02;96578.54;109042;1276;23174;-91
2024/04/08 09:31:01;;;;;;;;;;;;;;;22.61;51.36;96581.27;109115;1271;22515;-90
2024/04/08 09:33:28;;;;;;;;;;;;;;;22.69;51.55;96579.04;109036;1276;123912;-91
2024/04/08 09:35:55;;;;;;;;;;;;;;;22.78;52.12;96579.75;109116;1277;22523;-90
2024/04/08 09:38:21;;;;;;;;;;;;;;;22.89;49.93;96579.20;109016;1276;124673;-91
2024/04/08 09:40:47;;;;;;;;;;;;;;;22.97;49.00;96575.35;109128;1276;22521;-91
2024/04/08 09:43:15;;;;;;;;;;;;;;;23.03;50.21;96570.03;109027;1265;124236;-90
2024/04/08 09:45:41;;;;;;;;;;;;;;;23.11;50.56;96566.42;109177;1269;22576;-90
2024/04/08 09:48:12;;;;;;;;;;;;;;;23.20;50.67;96568.58;109051;1276;23830;-91
2024/04/08 09:50:40;;;;;;;;;;;;;;;23.26;49.42;96562.52;109035;1276;124210;-91
2024/04/08 09:53:07;;;;;;;;;;;;;;;23.32;48.24;96557.52;109090;1276;22502;-91
2024/04/08 09:55:34;;;;;;;;;;;;;;;23.39;49.26;96561.25;109029;1269;124153;-91
2024/04/08 09:58:00;;;;;;;;;;;;;;;23.46;48.15;96561.35;109126;1270;25247;-91
2024/04/08 10:00:30;;;;;;;;;;;;;;;23.51;47.50;96558.02;109151;1272;22518;-91
2024/04/08 10:02:59;;;;;;;;;;;;;;;23.55;47.37;96549.70;109090;1272;124748;-90
2024/04/08 10:05:26;;;;;;;;;;;;;;;23.58;46.05;96547.98;109092;1272;22484;-91
2024/04/08 10:07:52;;;;;;;;;;;;;;;23.59;46.10;96545.94;109091;1276;124766;-91
2024/04/08 10:10:19;;;;;;;;;;;;;;;23.62;46.06;96540.77;109166;1276;22517;-91
2024/04/08 10:12:45;;;;;;;;;;;;;;;23.67;45.34;96537.31;109132;1276;23300;-90
2024/04/08 10:15:13;;;;;;;;;;;;;;;23.73;45.16;96538.44;108829;1278;124099;-91
2024/04/08 10:17:43;;;;;;;;;;;;;;;23.78;44.56;96533.64;108914;1268;24050;-91
2024/04/08 10:20:17;;;;;;;;;;;;;;;23.84;45.61;96530.67;108698;1277;180788;-90
2024/04/08 10:22:44;;;;;;;;;;;;;;;23.89;45.91;96531.90;109058;1277;22500;-90
2024/04/08 10:25:29;;;;;;;;;;;;;;;23.94;46.34;96530.80;108835;1276;124412;-91
2024/04/08 10:28:15;;;;;;;;;;;;;;;24.00;45.73;96525.92;109159;1274;22932;-90
2024/04/08 10:30:42;;;;;;;;;;;;;;;24.05;44.85;96523.91;109102;1272;22534;-91
2024/04/08 10:33:12;;;;;;;;;;;;;;;24.07;44.54;96523.96;109056;1277;123986;-91
2024/04/08 10:35:39;;;;;;;;;;;;;;;24.10;45.09;96520.06;108933;1277;22556;-91
2024/04/08 10:38:08;;;;;;;;;;;;;;;24.14;45.02;96522.49;108975;1277;124054;-91
2024/04/08 10:40:34;;;;;;;;;;;;;;;24.19;45.89;96528.66;108923;1278;22548;-91
2024/04/08 10:43:01;;;;;;;;;;;;;;;24.23;43.41;96524.40;108983;1277;23152;-91
2024/04/08 10:45:27;;;;;;;;;;;;;;;24.24;43.97;96522.35;108917;1275;124360;-91
2024/04/08 10:47:57;;;;;;;;;;;;;;;24.29;43.37;96520.29;108840;1277;22506;-91
2024/04/08 10:50:24;;;;;;;;;;;;;;;24.33;43.21;96519.35;109042;1277;124005;-91
2024/04/08 10:52:50;;;;;;;;;;;;;;;24.31;42.80;96516.11;109083;1277;22538;-91
2024/04/08 10:55:17;;;;;;;;;;;;;;;24.29;42.83;96518.61;108894;1271;124296;-92
2024/04/08 10:57:43;;;;;;;;;;;;;;;24.32;42.58;96519.09;109012;1277;22492;-90
2024/04/08 11:00:10;;;;;;;;;;;;;;;24.31;42.24;96523.39;109010;1277;22495;-91
2024/04/08 11:02:38;;;;;;;;;;;;;;;24.32;41.04;96524.23;108934;1275;124035;-90
2024/04/08 11:05:04;;;;;;;;;;;;;;;24.32;42.22;96519.56;108929;1278;22923;-91
2024/04/08 11:07:35;;;;;;;;;;;;;;;24.35;42.47;96522.05;108992;1270;124244;-91
2024/04/08 11:10:04;;;;;;;;;;;;;;;24.36;41.33;96519.98;109074;1277;22736;-91
2024/04/08 11:12:30;;;;;;;;;;;;;;;24.36;40.83;96519.13;109024;1269;22568;-90
2024/04/08 11:15:00;;;;;;;;;;;;;;;24.36;40.64;96516.63;108844;1275;124052;-90
2024/04/08 11:17:27;;;;;;;;;;;;;;;24.36;41.15;96511.16;109094;1265;22556;-90
2024/04/08 11:19:57;;;;;;;;;;;;;;;24.41;42.31;96512.98;108936;1276;124411;-92
2024/04/08 11:22:23;;;;;;;;;;;;;;;24.42;41.83;96509.74;108934;1277;24363;-91
2024/04/08 11:24:50;;;;;;;;;;;;;;;24.43;41.83;96506.14;108871;1277;23000;-92
2024/04/08 11:27:16;;;;;;;;;;;;;;;24.43;42.35;96503.52;108871;1273;124064;-92
2024/04/08 11:29:46;;;;;;;;;;;;;;;24.46;42.33;96499.91;109003;1277;22528;-92
2024/04/08 11:32:13;;;;;;;;;;;;;;;24.50;41.90;96504.79;108965;1276;124300;-92
2024/04/08 11:34:40;;;;;;;;;;;;;;;24.53;40.90;96499.69;109059;1276;22511;-91
2024/04/08 11:37:09;;;;;;;;;;;;;;;24.56;41.74;96496.17;108993;1276;124353;-92
2024/04/08 11:39:36;;;;;;;;;;;;;;;24.61;41.95;96497.35;109110;1274;22578;-91
2024/04/08 11:42:03;;;;;;;;;;;;;;;24.65;41.08;96492.02;109000;1277;24051;-92
2024/04/08 11:44:30;;;;;;;;;;;;;;;24.67;40.85;96491.27;108905;1269;124045;-92
2024/04/08 11:46:57;;;;;;;;;;;;;;;24.68;40.19;96495.27;108959;1272;25308;-92
2024/04/08 11:49:23;;;;;;;;;;;;;;;24.66;40.71;96492.61;108983;1272;124189;-91
2024/04/08 11:51:49;;;;;;;;;;;;;;;24.66;41.45;96489.31;109023;1270;22610;-92
2024/04/08 11:54:16;;;;;;;;;;;;;;;24.69;41.23;96489.52;109066;1277;22537;-93
2024/04/08 11:56:43;;;;;;;;;;;;;;;24.71;40.45;96488.70;109019;1269;124006;-92
2024/04/08 11:59:09;;;;;;;;;;;;;;;24.70;40.23;96486.48;108928;1277;22492;-92
2024/04/08 12:01:36;;;;;;;;;;;;;;;24.72;40.76;96485.89;108892;1277;126913;-91
2024/04/08 12:04:03;;;;;;;;;;;;;;;24.77;40.97;96492.70;109012;1277;25240;-92
2024/04/08 12:06:29;;;;;;;;;;;;;;;24.80;39.89;96493.65;108948;1275;22512;-91
2024/04/08 12:08:56;;;;;;;;;;;;;;;24.80;39.79;96491.04;108861;1277;124196;-92
2024/04/08 12:11:23;;;;;;;;;;;;;;;24.85;40.64;96489.85;108980;1277;22593;-92
2024/04/08 12:13:50;;;;;;;;;;;;;;;24.94;40.46;96484.63;108939;1277;123995;-90
2024/04/08 12:16:16;;;;;;;;;;;;;;;25.03;40.14;96483.98;109030;1277;22527;-89
2024/04/08 12:18:43;;;;;;;;;;;;;;;25.10;40.00;96483.23;109066;1277;22544;-91
2024/04/08 12:21:10;;;;;;;;;;;;;;;25.15;40.09;96487.41;108895;1277;124039;-92
2024/04/08 12:23:36;;;;;;;;;;;;;;;25.16;38.93;96482.40;108969;1277;22515;-91
2024/04/08 12:26:03;;;;;;;;;;;;;;;25.17;39.28;96473.67;108919;1277;124017;-91
2024/04/08 12:28:29;;;;;;;;;;;;;;;25.19;39.91;96467.13;109010;1277;22514;-91
2024/04/08 12:30:56;;;;;;;;;;;;;;;25.26;39.51;96466.57;109130;1277;24178;-91